createdAt,value
2023-03-06T15:18:34.008Z,90.65
2023-03-06T15:21:16.493Z,91.53
2023-03-06T15:23:51.674Z,91.49
2023-03-06T15:26:33.201Z,91.47
2023-03-06T15:29:23.586Z,92.20
2023-03-06T15:32:16.976Z,91.33
2023-03-06T15:35:10.309Z,91.28
2023-03-06T15:37:43.912Z,91.64
2023-03-06T15:40:25.490Z,92.27
2023-03-06T15:42:59.918Z,91.58
2023-03-06T15:45:33.583Z,92.78
2023-03-06T15:48:17.343Z,92.28
2023-03-06T15:50:50.989Z,92.69
2023-03-06T15:53:24.397Z,92.66
2023-03-06T15:55:59.813Z,92.64
2023-03-06T15:58:35.370Z,92.52
2023-03-06T16:01:14.613Z,93.19
2023-03-06T16:03:48.404Z,93.26
2023-03-06T16:06:25.025Z,93.62
2023-03-06T16:08:58.506Z,94.24
2023-03-06T16:11:43.425Z,94.94
2023-03-06T16:14:24.045Z,95.69
2023-03-06T16:16:58.331Z,96.43
2023-03-06T16:19:31.772Z,95.90
2023-03-06T16:22:05.893Z,96.51
2023-03-06T16:24:39.496Z,96.43
2023-03-06T16:27:19.967Z,97.34
2023-03-06T16:29:53.953Z,97.06
2023-03-06T16:32:28.743Z,97.83
2023-03-06T16:35:02.155Z,98.58
2023-03-06T16:37:36.476Z,99.71
2023-03-06T16:40:22.386Z,99.72
2023-03-06T16:42:57.021Z,99.83
2023-03-06T16:45:32.046Z,100.00
2023-03-06T16:48:05.950Z,100.00
2023-03-06T16:50:41.822Z,100.00
2023-03-06T16:53:16.597Z,100.00
2023-03-06T16:55:50.387Z,100.00
2023-03-06T16:58:24.758Z,100.00
2023-03-06T17:00:58.522Z,100.00
2023-03-06T17:03:32.170Z,100.00
2023-03-06T17:06:14.358Z,100.00
2023-03-06T17:08:49.185Z,100.00
2023-03-06T17:11:23.198Z,100.00
2023-03-06T17:13:56.638Z,100.00
2023-03-06T17:16:30.505Z,100.00
2023-03-06T17:19:03.806Z,100.00
2023-03-06T17:21:38.632Z,100.00
2023-03-06T17:24:12.233Z,100.00
2023-03-06T17:26:47.459Z,100.00
